Time;durP1;ratioP1;P1;durP2;ratioP2;P2;SDS_P1;SDS_P2;PMS_P1;PMS_P2;Temp;Humidity;BMP_temperature;BMP_pressure;BME280_temperature;BME280_humidity;BME280_pressure;Samples;Min_cycle;Max_cycle;Signal;HPM_P1;HPM_P2
2023/11/06 00:01:20;;;;;;;2.03;1.73;;;11.30;99.90;;;;;;5118621;28;20432;-55
2023/11/06 00:03:47;;;;;;;6.77;1.50;;;11.40;99.90;;;;;;5102429;28;20511;-61
2023/11/06 00:06:16;;;;;;;3.83;1.40;;;11.40;99.90;;;;;;5111176;28;20483;-56
2023/11/06 00:08:45;;;;;;;3.70;1.53;;;11.40;99.90;;;;;;5106289;28;20470;-55
2023/11/06 00:11:11;;;;;;;1.93;1.27;;;11.40;99.90;;;;;;5088300;28;20449;-57
2023/11/06 00:13:38;;;;;;;3.07;1.50;;;11.40;99.90;;;;;;5089840;28;20972;-58
2023/11/06 00:16:06;;;;;;;1.90;1.40;;;11.40;99.90;;;;;;5101446;28;20434;-58
2023/11/06 00:18:33;;;;;;;3.80;1.67;;;11.50;99.90;;;;;;5109039;28;20439;-57
2023/11/06 00:21:00;;;;;;;3.40;1.70;;;11.50;99.90;;;;;;5102560;28;20431;-57
2023/11/06 00:23:28;;;;;;;4.83;1.60;;;11.50;99.90;;;;;;5107139;28;20442;-59
2023/11/06 00:25:57;;;;;;;9.07;1.50;;;11.50;99.90;;;;;;5112420;28;20451;-59
2023/11/06 00:28:24;;;;;;;1.50;1.10;;;11.50;99.90;;;;;;5093710;28;20445;-56
2023/11/06 00:30:51;;;;;;;2.97;1.57;;;11.40;99.90;;;;;;5089976;28;20464;-56
2023/11/06 00:33:18;;;;;;;3.30;1.27;;;11.40;99.90;;;;;;5098266;28;20419;-58
2023/11/06 00:35:45;;;;;;;3.03;1.50;;;11.30;99.90;;;;;;5078337;28;20500;-57
2023/11/06 00:38:12;;;;;;;1.90;1.50;;;11.30;99.90;;;;;;5102594;28;20438;-58
2023/11/06 00:40:39;;;;;;;2.73;1.67;;;11.40;99.90;;;;;;5107671;28;20488;-57
2023/11/06 00:43:07;;;;;;;1.83;1.27;;;11.30;99.90;;;;;;5104704;28;20485;-58
2023/11/06 00:45:34;;;;;;;4.13;1.37;;;11.40;99.90;;;;;;5086654;28;20494;-57
2023/11/06 00:48:01;;;;;;;3.67;1.70;;;11.30;99.90;;;;;;5096327;28;20521;-60
2023/11/06 00:50:30;;;;;;;1.77;1.67;;;11.30;99.90;;;;;;5105922;28;20474;-58
2023/11/06 00:52:58;;;;;;;3.33;1.30;;;11.30;99.90;;;;;;5107559;28;20446;-57
2023/11/06 00:55:26;;;;;;;4.30;1.30;;;11.30;99.90;;;;;;5107585;28;20460;-57
2023/11/06 00:57:52;;;;;;;2.20;1.20;;;11.40;99.90;;;;;;5103984;28;20438;-59
2023/11/06 01:00:22;;;;;;;3.13;2.40;;;11.30;99.90;;;;;;5084772;28;20896;-58
2023/11/06 01:02:48;;;;;;;2.67;1.00;;;11.40;99.90;;;;;;5093481;28;20433;-59
2023/11/06 01:05:15;;;;;;;2.70;1.70;;;11.40;99.90;;;;;;5088855;28;20566;-57
2023/11/06 01:07:44;;;;;;;1.63;1.10;;;11.40;99.90;;;;;;5086721;28;20929;-57
2023/11/06 01:10:14;;;;;;;3.20;1.67;;;11.40;99.90;;;;;;5106194;28;20415;-56
2023/11/06 01:12:41;;;;;;;3.37;1.27;;;11.40;99.90;;;;;;5113474;28;20430;-58
2023/11/06 01:15:08;;;;;;;3.20;1.60;;;11.40;99.90;;;;;;5104421;28;20435;-57
2023/11/06 01:17:36;;;;;;;2.33;1.40;;;11.40;99.90;;;;;;5105568;28;20423;-59
2023/11/06 01:20:04;;;;;;;5.33;1.33;;;11.40;99.90;;;;;;5106626;28;20524;-58
2023/11/06 01:22:30;;;;;;;3.67;1.60;;;11.40;99.90;;;;;;5107689;28;20434;-55
2023/11/06 01:24:57;;;;;;;10.43;2.20;;;11.40;99.90;;;;;;5091666;28;20557;-56
2023/11/06 01:27:24;;;;;;;1.73;1.27;;;11.40;99.90;;;;;;5087480;28;20516;-56
2023/11/06 01:29:51;;;;;;;2.70;1.60;;;11.40;99.90;;;;;;5110578;28;20448;-56
2023/11/06 01:32:20;;;;;;;6.00;1.30;;;11.40;99.90;;;;;;5114708;28;20465;-58
2023/11/06 01:34:48;;;;;;;2.00;1.07;;;11.40;99.90;;;;;;5103686;28;20886;-57
2023/11/06 01:37:15;;;;;;;3.10;1.00;;;11.40;99.90;;;;;;5098201;28;20469;-57
2023/11/06 01:39:42;;;;;;;4.27;1.03;;;11.40;99.90;;;;;;5099108;28;20973;-57
2023/11/06 01:42:12;;;;;;;3.47;1.10;;;11.40;99.90;;;;;;5102627;28;20517;-60
2023/11/06 01:44:39;;;;;;;2.60;1.50;;;11.40;99.90;;;;;;5111912;28;20477;-59
2023/11/06 01:47:09;;;;;;;3.47;1.43;;;11.40;99.90;;;;;;5116979;28;20455;-57
2023/11/06 01:49:36;;;;;;;4.10;1.50;;;11.40;99.90;;;;;;5117302;28;20464;-57
2023/11/06 01:52:06;;;;;;;2.60;1.47;;;11.40;99.90;;;;;;5116997;28;20492;-57
2023/11/06 01:54:33;;;;;;;7.30;1.30;;;11.40;99.90;;;;;;5101496;28;20452;-59
2023/11/06 01:57:02;;;;;;;2.90;0.97;;;11.40;99.90;;;;;;5094807;28;20497;-58
2023/11/06 01:59:29;;;;;;;3.10;1.70;;;11.50;99.90;;;;;;5098408;28;20516;-57
2023/11/06 02:01:59;;;;;;;3.43;1.77;;;11.40;99.90;;;;;;5098334;28;20446;-59
2023/11/06 02:04:26;;;;;;;1.73;1.10;;;11.40;99.90;;;;;;5096494;28;20485;-56
2023/11/06 02:06:54;;;;;;;4.10;1.57;;;11.40;99.90;;;;;;5115328;28;20442;-58
2023/11/06 02:09:22;;;;;;;2.90;1.30;;;11.30;99.90;;;;;;5116840;28;20465;-55
2023/11/06 02:11:49;;;;;;;5.87;1.53;;;11.30;99.90;;;;;;5116558;28;20430;-55
2023/11/06 02:14:16;;;;;;;4.27;1.20;;;11.30;99.90;;;;;;5116615;28;20478;-57
2023/11/06 02:16:43;;;;;;;3.97;1.40;;;11.20;99.90;;;;;;5116117;28;20440;-57
2023/11/06 02:19:10;;;;;;;8.03;1.70;;;11.20;99.90;;;;;;5115336;28;20502;-59
2023/11/06 02:21:37;;;;;;;6.80;1.50;;;11.30;99.90;;;;;;5086546;28;20494;-58
2023/11/06 02:24:08;;;;;;;3.03;1.50;;;11.30;99.90;;;;;;5077294;28;20488;-57
2023/11/06 02:26:35;;;;;;;3.40;1.20;;;11.30;99.90;;;;;;5078549;28;20500;-56
2023/11/06 02:29:02;;;;;;;4.00;1.20;;;11.20;99.90;;;;;;5076076;28;20919;-56
2023/11/06 02:31:29;;;;;;;2.53;1.33;;;11.30;99.90;;;;;;5080776;28;20427;-55
2023/11/06 02:33:56;;;;;;;3.47;1.77;;;11.30;99.90;;;;;;5098492;28;20459;-59
2023/11/06 02:36:23;;;;;;;6.10;2.00;;;11.30;99.90;;;;;;5094887;28;20510;-57
2023/11/06 02:38:50;;;;;;;6.40;1.70;;;11.30;99.90;;;;;;5104396;28;20441;-58
2023/11/06 02:41:19;;;;;;;3.60;1.40;;;11.30;99.90;;;;;;5115018;28;20940;-61
2023/11/06 02:43:45;;;;;;;3.57;1.60;;;11.30;99.90;;;;;;5115593;28;20460;-60
2023/11/06 02:46:12;;;;;;;1.57;1.33;;;11.30;99.90;;;;;;5115471;28;20505;-59
2023/11/06 02:48:39;;;;;;;1.73;0.93;;;11.30;99.90;;;;;;5115410;28;20785;-59
2023/11/06 02:51:07;;;;;;;5.60;2.20;;;11.30;99.90;;;;;;5105125;28;20442;-57
2023/11/06 02:53:34;;;;;;;1.90;1.20;;;11.30;99.90;;;;;;5095064;28;20446;-59
2023/11/06 02:56:01;;;;;;;1.67;1.27;;;11.30;99.90;;;;;;5095392;28;20536;-60
2023/11/06 02:58:29;;;;;;;2.03;0.97;;;11.30;99.90;;;;;;5096215;28;20525;-60
2023/11/06 03:00:56;;;;;;;1.67;1.20;;;11.40;99.90;;;;;;5103813;28;20501;-60
2023/11/06 03:03:22;;;;;;;1.83;1.20;;;11.40;99.90;;;;;;5114684;28;20524;-57
2023/11/06 03:05:49;;;;;;;1.90;1.33;;;11.40;99.90;;;;;;5115071;28;20505;-60
2023/11/06 03:08:17;;;;;;;3.33;1.30;;;11.30;99.90;;;;;;5091249;28;20524;-58
2023/11/06 03:10:44;;;;;;;2.70;1.20;;;11.40;99.90;;;;;;5074208;28;20544;-57
2023/11/06 03:13:11;;;;;;;6.30;1.50;;;11.30;99.90;;;;;;5074456;28;20442;-56
2023/11/06 03:15:40;;;;;;;2.90;1.10;;;11.30;99.90;;;;;;5074472;28;20482;-58
2023/11/06 03:18:06;;;;;;;1.50;1.13;;;11.30;99.90;;;;;;5076009;28;20497;-58
2023/11/06 03:20:33;;;;;;;1.70;1.33;;;11.30;99.90;;;;;;5078545;28;20438;-58
2023/11/06 03:23:00;;;;;;;3.77;1.10;;;11.30;99.90;;;;;;5078222;28;20466;-58
2023/11/06 03:25:28;;;;;;;4.03;2.20;;;11.20;99.90;;;;;;5078330;28;20482;-57
2023/11/06 03:27:54;;;;;;;1.43;0.93;;;11.20;99.90;;;;;;5078367;28;20450;-57
2023/11/06 03:30:22;;;;;;;1.93;1.30;;;11.20;99.90;;;;;;5097583;28;20429;-56
2023/11/06 03:32:51;;;;;;;2.17;1.27;;;11.10;99.90;;;;;;5089008;28;20427;-60
2023/11/06 03:35:18;;;;;;;1.97;1.40;;;11.10;99.90;;;;;;5100663;28;20473;-59
2023/11/06 03:37:46;;;;;;;2.70;1.20;;;11.10;99.90;;;;;;5080296;28;20485;-58
2023/11/06 03:40:14;;;;;;;3.53;1.20;;;11.10;99.90;;;;;;5098174;28;20441;-57
2023/11/06 03:42:41;;;;;;;2.33;1.07;;;11.10;99.90;;;;;;5117130;28;20459;-59
2023/11/06 03:45:09;;;;;;;2.90;1.30;;;11.00;99.90;;;;;;5122102;28;20445;-59
2023/11/06 03:47:35;;;;;;;6.30;1.33;;;11.10;99.90;;;;;;5106772;28;20472;-58
2023/11/06 03:50:04;;;;;;;1.63;1.10;;;11.00;99.90;;;;;;5098226;28;20437;-58
2023/11/06 03:52:31;;;;;;;2.43;1.10;;;11.10;99.90;;;;;;5097844;28;20795;-56
2023/11/06 03:54:58;;;;;;;3.23;1.50;;;11.00;99.90;;;;;;5097824;28;20521;-56
2023/11/06 03:57:25;;;;;;;1.60;0.97;;;11.00;99.90;;;;;;5098160;28;20438;-56
2023/11/06 03:59:51;;;;;;;1.67;1.10;;;11.00;99.90;;;;;;5117246;28;20472;-53
2023/11/06 04:02:18;;;;;;;1.77;1.30;;;10.90;99.90;;;;;;5118985;28;20437;-58
2023/11/06 04:04:47;;;;;;;2.97;1.50;;;10.90;99.90;;;;;;5119347;28;20492;-56
2023/11/06 04:07:15;;;;;;;1.43;1.17;;;10.90;99.90;;;;;;5116633;28;20441;-58
2023/11/06 04:09:42;;;;;;;4.33;1.80;;;10.90;99.90;;;;;;5110436;28;20501;-57
2023/11/06 04:12:09;;;;;;;2.57;1.10;;;10.80;99.90;;;;;;5118028;28;20465;-56
2023/11/06 04:14:36;;;;;;;5.77;1.60;;;10.80;99.90;;;;;;5097431;28;20449;-58
2023/11/06 04:17:03;;;;;;;5.97;1.43;;;10.80;99.90;;;;;;5097532;28;20465;-56
2023/11/06 04:19:30;;;;;;;2.17;1.20;;;10.70;99.90;;;;;;5096892;28;20823;-56
2023/11/06 04:21:57;;;;;;;1.57;0.80;;;10.60;99.90;;;;;;5115991;28;20476;-57
2023/11/06 04:24:25;;;;;;;5.53;1.80;;;10.70;99.90;;;;;;5110222;28;20447;-52
2023/11/06 04:26:52;;;;;;;3.00;1.13;;;10.60;99.90;;;;;;5121343;28;20469;-57
2023/11/06 04:29:18;;;;;;;2.37;1.00;;;10.60;99.90;;;;;;5096414;28;20517;-56
2023/11/06 04:31:45;;;;;;;2.67;1.43;;;10.50;99.90;;;;;;5100298;28;20453;-59
2023/11/06 04:34:12;;;;;;;2.03;1.30;;;10.50;99.90;;;;;;5110906;28;20449;-57
2023/11/06 04:36:41;;;;;;;5.03;1.40;;;10.40;99.90;;;;;;5104585;28;20482;-57
2023/11/06 04:39:09;;;;;;;1.57;1.33;;;10.40;99.90;;;;;;5109299;28;20465;-59
2023/11/06 04:41:38;;;;;;;1.43;1.13;;;10.30;99.90;;;;;;5108880;28;20450;-58
2023/11/06 04:44:06;;;;;;;1.30;0.93;;;10.30;99.90;;;;;;5115143;28;20453;-57
2023/11/06 04:46:33;;;;;;;3.57;1.20;;;10.30;99.90;;;;;;5103577;28;20473;-58
2023/11/06 04:49:00;;;;;;;3.73;2.20;;;10.30;99.90;;;;;;5097224;28;20505;-56
2023/11/06 04:51:27;;;;;;;3.40;1.73;;;10.30;99.90;;;;;;5097908;28;20473;-56
2023/11/06 04:53:53;;;;;;;3.33;1.50;;;10.20;99.90;;;;;;5096824;28;20524;-57
2023/11/06 04:56:20;;;;;;;2.83;1.30;;;10.20;99.90;;;;;;5096923;28;20764;-55
2023/11/06 04:58:48;;;;;;;2.53;1.50;;;10.20;99.90;;;;;;5096980;28;20447;-59
2023/11/06 05:01:17;;;;;;;3.03;1.33;;;10.30;99.90;;;;;;5097049;28;20557;-59
2023/11/06 05:03:44;;;;;;;1.87;1.70;;;10.30;99.90;;;;;;5120735;28;20398;-55
2023/11/06 05:06:11;;;;;;;3.70;1.90;;;10.30;99.90;;;;;;5096540;28;20568;-60
2023/11/06 05:08:38;;;;;;;5.97;1.60;;;10.30;99.90;;;;;;5109349;28;20497;-56
2023/11/06 05:11:06;;;;;;;3.50;1.47;;;10.40;99.90;;;;;;5103433;28;20474;-58
2023/11/06 05:13:34;;;;;;;3.63;1.50;;;10.40;99.90;;;;;;5098186;28;20952;-57
2023/11/06 05:16:04;;;;;;;1.73;1.20;;;10.40;99.90;;;;;;5120389;28;20418;-53
2023/11/06 05:18:31;;;;;;;1.77;1.20;;;10.40;99.90;;;;;;5111607;28;20536;-59
2023/11/06 05:20:57;;;;;;;5.17;1.30;;;10.50;99.90;;;;;;5101754;28;20492;-60
2023/11/06 05:23:24;;;;;;;1.33;1.00;;;10.50;99.90;;;;;;5118972;28;20457;-58
2023/11/06 05:25:51;;;;;;;1.90;1.00;;;10.50;99.90;;;;;;5115926;28;20486;-60
2023/11/06 05:28:18;;;;;;;3.00;1.47;;;10.50;99.90;;;;;;5112177;28;20449;-58
2023/11/06 05:30:45;;;;;;;2.13;1.27;;;10.60;99.90;;;;;;5095980;28;20524;-58
2023/11/06 05:33:13;;;;;;;4.10;1.33;;;10.60;99.90;;;;;;5113252;28;20473;-56
2023/11/06 05:35:40;;;;;;;2.30;1.33;;;10.60;99.90;;;;;;5117737;28;20426;-56
2023/11/06 05:38:06;;;;;;;1.20;1.00;;;10.70;99.90;;;;;;5101020;28;20495;-59
2023/11/06 05:40:33;;;;;;;5.00;1.73;;;10.60;99.90;;;;;;5099427;28;20446;-58
2023/11/06 05:43:00;;;;;;;7.70;1.83;;;10.60;99.90;;;;;;5091572;28;20482;-59
2023/11/06 05:45:27;;;;;;;4.23;1.30;;;10.60;99.90;;;;;;5075459;28;20946;-56
2023/11/06 05:47:55;;;;;;;2.37;1.27;;;10.60;99.90;;;;;;5075636;28;20807;-57
2023/11/06 05:50:23;;;;;;;1.87;1.17;;;10.60;99.90;;;;;;5086455;28;20455;-59
2023/11/06 05:52:50;;;;;;;1.90;1.23;;;10.60;99.90;;;;;;5096510;28;20431;-57
2023/11/06 05:55:17;;;;;;;4.10;1.47;;;10.60;99.90;;;;;;5099321;28;20411;-59
2023/11/06 05:57:45;;;;;;;2.70;1.30;;;10.60;99.90;;;;;;5098911;28;20450;-57
2023/11/06 06:00:15;;;;;;;5.23;1.30;;;10.70;99.90;;;;;;5086686;28;20822;-53
2023/11/06 06:02:42;;;;;;;5.53;1.30;;;10.70;99.90;;;;;;5098019;28;20462;-55
2023/11/06 06:05:09;;;;;;;2.50;1.10;;;10.70;99.90;;;;;;5085651;28;20493;-56
2023/11/06 06:07:37;;;;;;;1.90;1.10;;;10.80;99.90;;;;;;5075315;28;20484;-57
2023/11/06 06:10:05;;;;;;;2.80;1.17;;;10.80;99.90;;;;;;5082325;28;20486;-58
2023/11/06 06:12:33;;;;;;;6.57;1.70;;;10.80;99.90;;;;;;5087586;28;20521;-60
2023/11/06 06:15:01;;;;;;;5.33;1.27;;;10.90;99.90;;;;;;5108576;28;20468;-54
2023/11/06 06:17:29;;;;;;;3.47;1.20;;;10.90;99.90;;;;;;5099042;28;20816;-58
2023/11/06 06:19:55;;;;;;;6.10;1.27;;;10.90;99.90;;;;;;5106053;28;20513;-59
2023/11/06 06:22:22;;;;;;;2.13;1.63;;;11.00;99.90;;;;;;5108876;28;20426;-58
2023/11/06 06:24:51;;;;;;;7.23;1.73;;;11.00;99.90;;;;;;5116168;28;20445;-58
2023/11/06 06:27:17;;;;;;;4.80;1.20;;;11.00;99.90;;;;;;5107737;28;20489;-57
2023/11/06 06:29:45;;;;;;;3.30;1.60;;;11.00;99.90;;;;;;5095160;28;20473;-59
2023/11/06 06:32:14;;;;;;;2.77;1.40;;;11.00;99.90;;;;;;5095008;28;20441;-58
2023/11/06 06:34:41;;;;;;;2.10;1.50;;;11.10;99.90;;;;;;5098062;28;20426;-59
2023/11/06 06:37:08;;;;;;;2.70;1.37;;;11.00;99.90;;;;;;5102765;28;20513;-59
2023/11/06 06:39:34;;;;;;;3.07;1.13;;;11.10;99.90;;;;;;5103375;28;20497;-59
2023/11/06 06:42:03;;;;;;;3.07;1.27;;;11.10;99.90;;;;;;5101634;28;20452;-55
2023/11/06 06:44:30;;;;;;;2.10;1.07;;;11.10;99.90;;;;;;5110815;28;20433;-58
2023/11/06 06:46:58;;;;;;;3.33;1.57;;;11.20;99.90;;;;;;5092658;28;20560;-60
2023/11/06 06:49:26;;;;;;;3.20;1.60;;;11.20;99.90;;;;;;5094225;28;20467;-57
2023/11/06 06:51:53;;;;;;;5.53;1.00;;;11.20;99.90;;;;;;5103246;28;20466;-57
2023/11/06 06:54:19;;;;;;;1.53;1.10;;;11.30;99.90;;;;;;5100739;28;20525;-57
2023/11/06 06:56:47;;;;;;;2.60;0.80;;;11.30;99.90;;;;;;5100242;28;20489;-59
2023/11/06 06:59:15;;;;;;;1.30;1.10;;;11.30;99.90;;;;;;5105091;28;20540;-59
2023/11/06 07:01:42;;;;;;;2.20;1.50;;;11.30;99.90;;;;;;5079405;28;20524;-58
2023/11/06 07:04:09;;;;;;;3.83;1.13;;;11.30;99.90;;;;;;5084853;28;20442;-56
2023/11/06 07:06:36;;;;;;;2.43;1.23;;;11.30;99.90;;;;;;5100650;28;20796;-59
2023/11/06 07:09:03;;;;;;;3.77;1.37;;;11.30;99.90;;;;;;5094472;28;20456;-56
2023/11/06 07:11:32;;;;;;;1.50;0.90;;;11.30;99.90;;;;;;5094038;28;20442;-57
2023/11/06 07:13:59;;;;;;;4.00;2.00;;;11.40;99.90;;;;;;5117851;28;20833;-54
2023/11/06 07:16:27;;;;;;;7.50;1.10;;;11.40;99.90;;;;;;5106495;28;21011;-55
2023/11/06 07:18:55;;;;;;;2.40;0.83;;;11.50;99.90;;;;;;5112996;28;20476;-51
2023/11/06 07:21:23;;;;;;;1.20;0.90;;;11.50;99.90;;;;;;5094952;28;20498;-56
2023/11/06 07:23:51;;;;;;;1.93;0.83;;;11.40;99.90;;;;;;5109125;28;20443;-58
2023/11/06 07:26:18;;;;;;;4.20;1.10;;;11.50;99.90;;;;;;5110666;28;20521;-60
2023/11/06 07:28:45;;;;;;;1.77;0.90;;;11.50;99.90;;;;;;5098749;28;20550;-59
2023/11/06 07:31:12;;;;;;;2.63;1.00;;;11.50;99.90;;;;;;5094500;28;20480;-54
2023/11/06 07:33:41;;;;;;;1.23;0.90;;;11.50;99.90;;;;;;5094342;28;20458;-57
2023/11/06 07:36:09;;;;;;;5.43;1.13;;;11.60;99.90;;;;;;5094711;28;20473;-57
2023/11/06 07:38:36;;;;;;;2.03;0.80;;;11.70;99.90;;;;;;5094086;28;20449;-60
2023/11/06 07:41:03;;;;;;;1.60;1.20;;;11.70;99.90;;;;;;5097659;28;20445;-55
2023/11/06 07:43:30;;;;;;;7.73;1.63;;;11.80;99.90;;;;;;5110413;28;20510;-57
2023/11/06 07:45:57;;;;;;;3.17;1.93;;;11.80;99.90;;;;;;5086841;28;20460;-59
2023/11/06 07:48:24;;;;;;;1.63;1.30;;;11.80;99.90;;;;;;5096305;28;20484;-55
2023/11/06 07:50:55;;;;;;;5.00;1.10;;;11.70;99.90;;;;;;5112828;28;20481;-57
2023/11/06 07:53:21;;;;;;;2.27;1.20;;;11.70;99.90;;;;;;5094169;28;20518;-58
2023/11/06 07:55:48;;;;;;;3.87;1.30;;;11.60;99.90;;;;;;5092062;28;20461;-56
2023/11/06 07:58:15;;;;;;;1.80;0.90;;;11.60;99.90;;;;;;5094122;28;20536;-58
2023/11/06 08:00:43;;;;;;;5.93;1.37;;;11.60;99.90;;;;;;5109613;28;20460;-57
2023/11/06 08:03:10;;;;;;;1.40;0.97;;;11.60;99.90;;;;;;5098332;28;20514;-59
2023/11/06 08:05:38;;;;;;;1.23;1.00;;;11.60;99.90;;;;;;5098777;28;20946;-57
2023/11/06 08:08:08;;;;;;;5.67;1.30;;;11.70;99.90;;;;;;5109014;28;20561;-51
2023/11/06 08:10:35;;;;;;;1.50;1.00;;;11.70;99.90;;;;;;5106630;28;20469;-49
2023/11/06 08:13:02;;;;;;;2.40;0.70;;;11.70;99.90;;;;;;5099998;28;20838;-53
2023/11/06 08:15:29;;;;;;;3.00;0.80;;;11.70;99.90;;;;;;5101353;28;20486;-55
2023/11/06 08:17:56;;;;;;;3.63;1.03;;;11.80;99.90;;;;;;5098069;28;20526;-59
2023/11/06 08:20:23;;;;;;;2.17;0.83;;;11.80;99.90;;;;;;5097449;28;20469;-55
2023/11/06 08:22:51;;;;;;;2.40;1.00;;;11.80;99.90;;;;;;5100648;28;20483;-55
2023/11/06 08:25:19;;;;;;;2.97;1.00;;;11.90;99.90;;;;;;5113303;28;20477;-59
2023/11/06 08:27:46;;;;;;;5.63;0.90;;;11.90;99.90;;;;;;5094857;28;20492;-58
2023/11/06 08:30:14;;;;;;;1.87;0.80;;;11.80;99.90;;;;;;5118461;28;20461;-58
2023/11/06 08:32:41;;;;;;;1.90;1.00;;;11.80;99.90;;;;;;5115729;28;20517;-60
2023/11/06 08:35:08;;;;;;;5.33;1.37;;;11.90;99.90;;;;;;5108330;28;20472;-58
2023/11/06 08:37:35;;;;;;;2.77;1.17;;;11.90;99.90;;;;;;5116579;28;20485;-59
2023/11/06 08:40:03;;;;;;;1.30;0.80;;;12.00;99.90;;;;;;5112151;28;20454;-58
2023/11/06 08:42:32;;;;;;;2.40;1.13;;;12.00;99.90;;;;;;5108503;28;20529;-57
2023/11/06 08:44:59;;;;;;;1.30;0.90;;;12.10;99.90;;;;;;5104695;28;20430;-59
2023/11/06 08:47:26;;;;;;;3.97;0.97;;;12.20;99.90;;;;;;5096387;28;20477;-58
2023/11/06 08:49:55;;;;;;;1.13;1.00;;;12.40;99.90;;;;;;5119555;28;20414;-59
2023/11/06 08:52:24;;;;;;;1.40;0.90;;;12.70;99.90;;;;;;5113410;28;20426;-56
2023/11/06 08:54:52;;;;;;;2.50;0.80;;;12.80;99.90;;;;;;5116249;28;20441;-57
2023/11/06 08:57:19;;;;;;;1.30;1.00;;;12.80;99.90;;;;;;5112432;28;20453;-55
2023/11/06 08:59:48;;;;;;;2.80;1.20;;;12.80;99.90;;;;;;5118057;28;20464;-59
2023/11/06 09:02:15;;;;;;;1.43;1.13;;;12.80;99.90;;;;;;5105317;28;20517;-59
2023/11/06 09:04:43;;;;;;;2.77;1.03;;;12.70;99.90;;;;;;5120455;28;20422;-56
2023/11/06 09:07:10;;;;;;;1.23;0.83;;;12.70;99.90;;;;;;5098154;28;20481;-56
2023/11/06 09:09:37;;;;;;;1.43;1.00;;;12.60;99.90;;;;;;5119455;28;20429;-57
2023/11/06 09:12:05;;;;;;;4.20;1.30;;;12.60;99.90;;;;;;5113027;28;20469;-53
2023/11/06 09:14:32;;;;;;;1.30;0.90;;;12.70;99.90;;;;;;5106883;28;20497;-56
2023/11/06 09:17:04;;;;;;;2.70;1.10;;;12.70;99.90;;;;;;5119419;28;20489;-61
2023/11/06 09:19:31;;;;;;;1.53;1.00;;;12.70;99.90;;;;;;5119246;28;20715;-60
2023/11/06 09:21:59;;;;;;;5.93;2.10;;;12.70;99.90;;;;;;5115403;28;20464;-59
2023/11/06 09:24:29;;;;;;;1.80;1.10;;;12.80;99.90;;;;;;5105083;28;20504;-55
2023/11/06 09:26:56;;;;;;;2.93;1.30;;;12.70;99.90;;;;;;5113494;28;20500;-58
2023/11/06 09:29:24;;;;;;;6.37;1.53;;;12.80;99.90;;;;;;5116497;28;20540;-57
2023/11/06 09:31:54;;;;;;;3.73;1.03;;;12.90;99.90;;;;;;5102242;28;20476;-55
2023/11/06 09:34:22;;;;;;;1.40;0.90;;;12.90;99.90;;;;;;5097485;28;20528;-60
2023/11/06 09:36:50;;;;;;;1.87;1.20;;;12.90;99.90;;;;;;5095809;28;20457;-60
2023/11/06 09:39:18;;;;;;;1.47;0.93;;;12.80;99.90;;;;;;5110483;28;20460;-60
2023/11/06 09:41:46;;;;;;;2.23;1.50;;;12.80;99.90;;;;;;5118370;28;20457;-58
2023/11/06 09:44:13;;;;;;;6.60;1.57;;;12.80;99.90;;;;;;5099081;28;20450;-55
2023/11/06 09:46:41;;;;;;;2.07;1.87;;;12.80;99.90;;;;;;5111848;28;20437;-58
2023/11/06 09:49:16;;;;;;;1.73;1.20;;;12.90;99.90;;;;;;5101636;28;20497;-59
2023/11/06 09:51:52;;;;;;;3.50;1.50;;;12.90;99.90;;;;;;5095582;28;20445;-60
2023/11/06 09:54:22;;;;;;;7.80;1.37;;;12.90;99.90;;;;;;5117068;28;20441;-60
2023/11/06 09:56:49;;;;;;;5.00;1.30;;;13.00;99.90;;;;;;5097019;28;20438;-57
2023/11/06 09:59:18;;;;;;;2.67;1.40;;;13.00;99.90;;;;;;5102587;28;20443;-57
2023/11/06 10:01:46;;;;;;;4.93;1.50;;;13.00;99.90;;;;;;5119316;28;20453;-57
2023/11/06 10:04:15;;;;;;;3.10;1.27;;;13.10;99.90;;;;;;5110211;28;20457;-57
2023/11/06 10:06:44;;;;;;;1.60;1.20;;;13.20;99.90;;;;;;5094121;28;20455;-61
2023/11/06 10:09:23;;;;;;;2.57;1.10;;;13.30;99.90;;;;;;5094449;28;20476;-58
2023/11/06 10:11:57;;;;;;;1.70;0.90;;;13.30;99.90;;;;;;5118081;28;20429;-53
2023/11/06 10:14:37;;;;;;;5.07;1.00;;;13.30;99.90;;;;;;5119074;28;20441;-61
2023/11/06 10:17:05;;;;;;;2.13;1.53;;;13.20;99.90;;;;;;5114479;28;20489;-59
2023/11/06 10:19:33;;;;;;;4.70;1.70;;;13.20;99.90;;;;;;5094378;28;20990;-63
2023/11/06 10:22:13;;;;;;;2.97;2.10;;;13.20;99.90;;;;;;5102114;28;20406;-54
2023/11/06 10:24:50;;;;;;;4.10;1.23;;;13.20;99.90;;;;;;5111979;28;20418;-58
2023/11/06 10:27:27;;;;;;;3.27;1.17;;;13.30;99.90;;;;;;5092745;28;20485;-58
2023/11/06 10:30:04;;;;;;;4.00;1.00;;;13.60;99.90;;;;;;5119029;28;20432;-53
2023/11/06 10:32:31;;;;;;;8.00;1.27;;;13.60;99.90;;;;;;5113167;28;20465;-55
2023/11/06 10:35:02;;;;;;;4.50;2.00;;;13.70;99.90;;;;;;5110281;28;20445;-52
2023/11/06 10:37:29;;;;;;;1.40;1.10;;;13.90;99.90;;;;;;5106576;28;20476;-51
2023/11/06 10:39:58;;;;;;;2.37;1.60;;;14.10;99.90;;;;;;5105527;28;20446;-53
2023/11/06 10:42:26;;;;;;;1.97;1.10;;;14.20;99.90;;;;;;5111915;28;20454;-48
2023/11/06 10:44:58;;;;;;;3.17;1.57;;;14.30;99.90;;;;;;5086634;28;20854;-51
2023/11/06 10:47:28;;;;;;;3.37;1.10;;;14.30;99.90;;;;;;5118346;28;20473;-51
2023/11/06 10:50:07;;;;;;;4.83;1.60;;;14.20;99.90;;;;;;5103239;28;20472;-52
2023/11/06 10:52:35;;;;;;;2.03;1.30;;;14.10;99.90;;;;;;5099667;28;20465;-53
2023/11/06 10:55:08;;;;;;;3.03;1.10;;;13.90;99.90;;;;;;5116845;28;20445;-55
2023/11/06 10:57:36;;;;;;;4.73;1.40;;;13.90;99.90;;;;;;5109298;28;20421;-45
2023/11/06 11:00:07;;;;;;;2.13;1.40;;;13.90;99.90;;;;;;5117382;28;20468;-54
2023/11/06 11:02:45;;;;;;;6.77;1.43;;;13.80;99.90;;;;;;5098611;28;20941;-56
2023/11/06 11:05:14;;;;;;;3.13;1.30;;;13.70;99.90;;;;;;5083629;28;20434;-55
2023/11/06 11:07:42;;;;;;;1.97;1.30;;;13.70;99.90;;;;;;5114460;28;20507;-54
2023/11/06 11:10:17;;;;;;;1.10;0.90;;;13.60;99.90;;;;;;5083943;28;20427;-50
2023/11/06 11:12:46;;;;;;;2.47;1.20;;;13.50;99.90;;;;;;5094850;28;20510;-58
2023/11/06 11:15:14;;;;;;;1.77;1.20;;;13.40;99.90;;;;;;5117294;28;20413;-56
2023/11/06 11:17:57;;;;;;;2.90;1.30;;;13.40;99.90;;;;;;5107360;28;20425;-50
2023/11/06 11:20:24;;;;;;;3.30;1.60;;;13.40;99.90;;;;;;5116870;28;20443;-51
2023/11/06 11:23:06;;;;;;;1.77;1.10;;;13.30;99.90;;;;;;5110324;28;20506;-56
2023/11/06 11:25:58;;;;;;;4.30;1.50;;;13.40;99.90;;;;;;5101962;28;20457;-49
2023/11/06 11:28:26;;;;;;;2.13;1.00;;;13.70;99.90;;;;;;5107037;28;20469;-48
2023/11/06 11:30:53;;;;;;;3.03;1.10;;;14.10;99.90;;;;;;5112128;28;20411;-51
2023/11/06 11:33:53;;;;;;;3.90;1.63;;;14.30;99.90;;;;;;5091800;28;20488;-51
2023/11/06 11:36:28;;;;;;;2.43;0.93;;;14.50;99.90;;;;;;5108532;28;20445;-53
2023/11/06 11:38:56;;;;;;;1.40;1.13;;;14.60;99.90;;;;;;5101849;28;20444;-53
2023/11/06 11:41:25;;;;;;;3.70;1.17;;;14.80;99.90;;;;;;5119828;28;20498;-54
2023/11/06 11:44:05;;;;;;;1.50;1.40;;;15.00;99.90;;;;;;5116947;28;20445;-56
2023/11/06 11:46:56;;;;;;;2.30;1.20;;;15.00;99.90;;;;;;5099251;28;20449;-52
2023/11/06 11:49:44;;;;;;;2.40;1.20;;;15.00;99.90;;;;;;5098098;28;20560;-57
2023/11/06 11:52:13;;;;;;;1.87;1.10;;;15.00;99.90;;;;;;5097101;28;20481;-55
2023/11/06 11:54:40;;;;;;;2.00;1.23;;;15.00;99.90;;;;;;5084498;28;20529;-56
2023/11/06 11:57:09;;;;;;;2.67;1.37;;;14.90;99.90;;;;;;5084713;28;20808;-59
2023/11/06 11:59:41;;;;;;;3.17;0.93;;;14.70;99.90;;;;;;5099644;28;20517;-53
2023/11/06 12:02:21;;;;;;;3.47;1.23;;;14.50;99.90;;;;;;5104826;28;20438;-55
2023/11/06 12:04:48;;;;;;;1.00;0.70;;;14.40;99.90;;;;;;5111694;28;20488;-57
2023/11/06 12:07:16;;;;;;;5.33;1.00;;;14.30;99.90;;;;;;5099203;28;20433;-58
2023/11/06 12:09:47;;;;;;;3.60;1.20;;;14.20;99.90;;;;;;5118075;28;20461;-56
2023/11/06 12:12:26;;;;;;;1.20;0.87;;;14.10;99.90;;;;;;5082736;28;20958;-57
2023/11/06 12:14:57;;;;;;;2.03;1.33;;;14.10;99.90;;;;;;5097951;28;20442;-56
2023/11/06 12:17:29;;;;;;;2.37;1.00;;;14.00;99.90;;;;;;5113956;28;20542;-56
2023/11/06 12:19:56;;;;;;;2.23;1.00;;;14.00;99.90;;;;;;5118298;28;20433;-53
2023/11/06 12:22:23;;;;;;;1.60;1.00;;;14.00;99.90;;;;;;5092575;28;20569;-56
2023/11/06 12:24:52;;;;;;;2.37;1.50;;;13.90;99.90;;;;;;5086988;28;20454;-59
2023/11/06 12:27:20;;;;;;;3.53;1.67;;;13.90;99.90;;;;;;5113895;28;20470;-54
2023/11/06 12:29:49;;;;;;;1.80;1.00;;;13.80;99.90;;;;;;5115057;28;20503;-57
2023/11/06 12:32:21;;;;;;;1.80;1.07;;;13.80;99.90;;;;;;5090484;28;20933;-55
2023/11/06 12:34:48;;;;;;;5.00;1.43;;;13.70;99.90;;;;;;5088425;28;20453;-57
2023/11/06 12:37:16;;;;;;;2.70;1.30;;;13.70;99.90;;;;;;5101349;28;20453;-55
2023/11/06 12:39:44;;;;;;;6.00;2.13;;;13.70;99.90;;;;;;5087953;28;20561;-55
2023/11/06 12:42:11;;;;;;;5.67;1.60;;;13.70;99.90;;;;;;5103123;27;20602;-59
2023/11/06 12:44:39;;;;;;;2.00;1.10;;;13.80;99.90;;;;;;5101966;27;20473;-56
2023/11/06 12:47:09;;;;;;;2.17;1.77;;;13.80;99.90;;;;;;5088617;28;20898;-56
2023/11/06 12:49:49;;;;;;;2.80;1.30;;;13.70;99.90;;;;;;5083982;28;20481;-52
2023/11/06 12:52:18;;;;;;;2.00;1.07;;;13.70;99.90;;;;;;5084651;28;20453;-52
2023/11/06 12:54:47;;;;;;;2.33;1.30;;;13.70;99.90;;;;;;5094647;28;20536;-55